Time;durP1;ratioP1;P1;durP2;ratioP2;P2;SDS_P1;SDS_P2;PMS_P1;PMS_P2;Temp;Humidity;BMP_temperature;BMP_pressure;BME280_temperature;BME280_humidity;BME280_pressure;Samples;Min_cycle;Max_cycle;Signal;HPM_P1;HPM_P2
2022/11/07 00:01:36;;;;;;;26.57;12.40;;;6.20;1.00;;;;;;4922420;29;20199;-78
2022/11/07 00:04:04;;;;;;;24.63;12.93;;;6.20;1.00;;;;;;4935181;29;20228;-79
2022/11/07 00:06:31;;;;;;;24.47;12.43;;;6.20;1.00;;;;;;4935363;29;20215;-76
2022/11/07 00:09:00;;;;;;;22.47;12.60;;;6.20;1.00;;;;;;4935364;29;20208;-77
2022/11/07 00:11:27;;;;;;;24.63;12.63;;;6.20;1.00;;;;;;4935076;29;20603;-77
2022/11/07 00:13:54;;;;;;;24.47;13.17;;;6.20;1.00;;;;;;4933937;29;20238;-76
2022/11/07 00:16:21;;;;;;;26.83;12.80;;;6.20;1.00;;;;;;4928905;29;20191;-78
2022/11/07 00:18:48;;;;;;;22.30;12.93;;;6.10;1.00;;;;;;4915658;29;20681;-78
2022/11/07 00:21:15;;;;;;;24.47;12.30;;;6.10;1.00;;;;;;4916054;29;20198;-77
2022/11/07 00:23:42;;;;;;;24.43;12.00;;;6.10;1.00;;;;;;4916001;29;20232;-78
2022/11/07 00:26:13;;;;;;;29.87;13.10;;;6.20;1.00;;;;;;4915855;29;20677;-77
2022/11/07 00:28:42;;;;;;;22.13;12.23;;;6.20;1.00;;;;;;4919849;29;20188;-77
2022/11/07 00:31:11;;;;;;;25.97;12.93;;;6.10;1.00;;;;;;4919716;29;20204;-77
2022/11/07 00:33:38;;;;;;;27.37;13.23;;;6.10;1.00;;;;;;4919357;29;20206;-76
2022/11/07 00:36:06;;;;;;;21.33;12.63;;;6.10;1.00;;;;;;4919625;29;20204;-76
2022/11/07 00:38:33;;;;;;;25.97;12.50;;;6.10;1.00;;;;;;4919372;29;20211;-78
2022/11/07 00:41:02;;;;;;;23.70;12.37;;;6.10;1.00;;;;;;4919783;29;20260;-78
2022/11/07 00:43:30;;;;;;;26.23;12.80;;;6.10;1.00;;;;;;4919495;29;20224;-76
2022/11/07 00:45:57;;;;;;;24.77;13.17;;;6.10;1.00;;;;;;4934783;29;20259;-77
2022/11/07 00:48:24;;;;;;;22.43;12.47;;;6.10;1.00;;;;;;4938446;29;20216;-76
2022/11/07 00:50:51;;;;;;;23.97;12.10;;;6.10;1.00;;;;;;4920430;29;20209;-78
2022/11/07 00:53:19;;;;;;;25.33;12.40;;;6.00;1.00;;;;;;4919023;29;20232;-76
2022/11/07 00:55:46;;;;;;;24.63;11.97;;;6.10;1.00;;;;;;4919265;29;20199;-77
2022/11/07 00:58:14;;;;;;;23.20;12.20;;;6.00;3.30;;;;;;4926534;29;20211;-77
2022/11/07 01:00:42;;;;;;;24.67;12.00;;;6.10;35.20;;;;;;4937885;29;20620;-76
2022/11/07 01:05:58;;;;;;;21.40;12.17;;;6.10;1.00;;;;;;4937911;29;20305;-76
2022/11/07 01:08:25;;;;;;;25.00;12.67;;;6.10;1.00;;;;;;4938259;29;20294;-78
2022/11/07 01:10:52;;;;;;;25.30;12.70;;;6.10;1.00;;;;;;4938038;29;20208;-78
2022/11/07 01:13:19;;;;;;;25.13;12.20;;;6.10;1.00;;;;;;4937678;29;20228;-77
2022/11/07 01:15:48;;;;;;;25.13;12.97;;;6.10;1.00;;;;;;4937136;29;20264;-78
2022/11/07 01:18:15;;;;;;;23.93;12.40;;;6.00;1.00;;;;;;4927971;29;20271;-77
2022/11/07 01:20:42;;;;;;;26.30;12.03;;;6.00;1.00;;;;;;4918548;29;20207;-77
2022/11/07 01:23:10;;;;;;;20.93;12.40;;;6.10;1.00;;;;;;4929738;29;20641;-77
2022/11/07 01:25:38;;;;;;;26.50;13.03;;;6.00;1.00;;;;;;4935623;29;20579;-76
2022/11/07 01:28:06;;;;;;;25.50;12.83;;;6.10;1.00;;;;;;4918964;29;20191;-79
2022/11/07 01:30:33;;;;;;;28.90;12.80;;;6.00;1.00;;;;;;4922389;29;20574;-77
2022/11/07 01:33:01;;;;;;;28.10;13.57;;;6.00;1.00;;;;;;4921398;29;20204;-77
2022/11/07 01:35:28;;;;;;;28.20;14.70;;;6.10;1.00;;;;;;4918279;29;20251;-78
2022/11/07 01:37:55;;;;;;;25.77;13.40;;;6.10;1.00;;;;;;4917938;29;20195;-77
2022/11/07 01:40:22;;;;;;;26.97;13.17;;;6.10;1.00;;;;;;4917870;29;20259;-77
2022/11/07 01:42:49;;;;;;;31.73;13.70;;;6.10;1.00;;;;;;4918080;29;20219;-77
2022/11/07 01:45:22;;;;;;;26.97;13.07;;;6.10;1.00;;;;;;4918500;29;20203;-78
2022/11/07 01:47:52;;;;;;;28.40;12.20;;;6.00;1.00;;;;;;4918271;29;20192;-78
2022/11/07 01:50:21;;;;;;;28.90;13.03;;;6.00;1.00;;;;;;4918340;29;20205;-77
2022/11/07 01:52:50;;;;;;;24.63;12.73;;;6.00;1.00;;;;;;4918003;29;20211;-78
2022/11/07 01:55:21;;;;;;;27.83;13.20;;;6.00;1.00;;;;;;4917768;29;20252;-77
2022/11/07 01:57:52;;;;;;;25.37;12.63;;;6.10;1.00;;;;;;4918027;29;20188;-76
2022/11/07 02:00:22;;;;;;;25.60;12.70;;;6.10;1.00;;;;;;4917889;29;20236;-77
2022/11/07 02:02:52;;;;;;;28.57;12.60;;;6.10;1.00;;;;;;4918035;29;20222;-78
2022/11/07 02:05:26;;;;;;;26.40;13.13;;;6.10;1.00;;;;;;4917916;29;20200;-77
2022/11/07 02:07:53;;;;;;;26.90;13.07;;;6.10;1.00;;;;;;4918089;29;20333;-78
2022/11/07 02:10:21;;;;;;;23.10;12.17;;;6.20;1.00;;;;;;4917929;29;20606;-76
2022/11/07 02:12:48;;;;;;;22.20;12.33;;;6.20;1.00;;;;;;4917515;29;20230;-78
2022/11/07 02:15:15;;;;;;;27.10;12.40;;;6.20;1.00;;;;;;4917573;29;20191;-78
2022/11/07 02:17:42;;;;;;;22.30;12.07;;;6.20;1.00;;;;;;4917706;29;20192;-77
2022/11/07 02:20:11;;;;;;;22.50;12.67;;;6.30;1.00;;;;;;4917588;29;20652;-78
2022/11/07 02:22:45;;;;;;;24.40;12.03;;;6.30;99.90;;;;;;4917918;29;20200;-78
2022/11/07 02:25:15;;;;;;;23.93;12.43;;;6.30;99.90;;;;;;4917617;29;20188;-78
2022/11/07 02:27:43;;;;;;;24.20;12.30;;;6.40;99.90;;;;;;4917995;29;20196;-78
2022/11/07 02:30:13;;;;;;;24.87;12.23;;;6.40;99.90;;;;;;4917346;29;20617;-78
2022/11/07 02:32:40;;;;;;;23.10;12.27;;;6.40;99.90;;;;;;4917558;29;20243;-77
2022/11/07 02:35:39;;;;;;;20.57;11.87;;;6.40;99.90;;;;;;4917588;29;20203;-78
2022/11/07 02:38:09;;;;;;;24.80;12.43;;;6.40;99.90;;;;;;4917601;29;20185;-78
2022/11/07 02:40:38;;;;;;;23.33;12.10;;;6.50;97.40;;;;;;4917697;29;20284;-79
2022/11/07 02:43:06;;;;;;;25.53;12.87;;;6.50;94.60;;;;;;4917009;29;20699;-78
2022/11/07 02:45:37;;;;;;;23.00;12.20;;;6.50;17.20;;;;;;4917045;29;20204;-77
2022/11/07 02:48:05;;;;;;;25.97;12.07;;;6.50;1.00;;;;;;4917296;29;20253;-77
2022/11/07 02:50:32;;;;;;;25.57;11.93;;;6.50;1.00;;;;;;4916371;29;20627;-77
2022/11/07 02:52:59;;;;;;;25.47;12.57;;;6.50;1.00;;;;;;4916780;29;20194;-76
2022/11/07 02:55:26;;;;;;;26.40;11.57;;;6.50;1.00;;;;;;4916880;29;20205;-76
2022/11/07 02:57:54;;;;;;;25.30;12.50;;;6.50;1.00;;;;;;4916835;29;20252;-78
2022/11/07 03:00:21;;;;;;;26.73;12.27;;;6.50;1.00;;;;;;4917061;29;20201;-78
2022/11/07 03:02:48;;;;;;;24.60;11.63;;;6.60;1.00;;;;;;4916902;29;20208;-77
2022/11/07 03:05:16;;;;;;;24.87;12.57;;;6.60;1.00;;;;;;4916635;29;20542;-78
2022/11/07 03:07:44;;;;;;;27.70;12.27;;;6.60;1.00;;;;;;4916435;29;20202;-78
2022/11/07 03:10:12;;;;;;;22.30;12.37;;;6.60;1.00;;;;;;4916930;29;20189;-79
2022/11/07 03:12:39;;;;;;;29.50;13.00;;;6.60;1.00;;;;;;4916623;29;20202;-78
2022/11/07 03:15:09;;;;;;;23.07;13.00;;;6.70;1.00;;;;;;4916393;29;20194;-78
2022/11/07 03:17:36;;;;;;;28.07;11.97;;;6.70;1.00;;;;;;4916548;29;20248;-77
2022/11/07 03:20:03;;;;;;;30.17;12.40;;;6.70;1.00;;;;;;4916511;29;20259;-77
2022/11/07 03:22:30;;;;;;;20.83;11.47;;;6.80;99.90;;;;;;4916649;29;20312;-76
2022/11/07 03:24:57;;;;;;;28.33;12.77;;;6.80;99.90;;;;;;4916447;29;20220;-78
2022/11/07 03:27:24;;;;;;;22.27;12.00;;;6.80;99.90;;;;;;4916644;29;20236;-77
2022/11/07 03:29:51;;;;;;;22.00;11.93;;;6.80;99.90;;;;;;4916358;29;20201;-77
2022/11/07 03:32:21;;;;;;;25.97;12.50;;;6.90;99.90;;;;;;4916304;29;20611;-78
2022/11/07 03:34:48;;;;;;;26.47;12.57;;;6.90;62.60;;;;;;4916537;29;20198;-77
2022/11/07 03:37:15;;;;;;;24.53;11.57;;;6.90;1.00;;;;;;4933404;29;20199;-77
2022/11/07 03:39:42;;;;;;;26.03;13.03;;;6.90;1.00;;;;;;4935672;29;20606;-78
2022/11/07 03:42:10;;;;;;;23.80;12.63;;;6.90;1.00;;;;;;4935662;29;20201;-77
2022/11/07 03:44:37;;;;;;;22.10;11.87;;;6.90;1.00;;;;;;4921334;29;20225;-77
2022/11/07 03:47:04;;;;;;;27.23;12.10;;;7.00;1.00;;;;;;4916094;29;20205;-78
2022/11/07 03:49:32;;;;;;;23.13;11.90;;;6.90;1.00;;;;;;4916336;29;20284;-77
2022/11/07 03:51:59;;;;;;;28.60;12.60;;;7.00;1.00;;;;;;4916376;29;20660;-78
2022/11/07 03:54:27;;;;;;;23.13;12.17;;;7.00;1.00;;;;;;4916064;29;20607;-77
2022/11/07 03:56:54;;;;;;;23.40;11.60;;;7.00;1.00;;;;;;4915937;29;20202;-77
2022/11/07 03:59:21;;;;;;;21.13;12.10;;;7.00;1.00;;;;;;4916593;29;20206;-78
2022/11/07 04:01:47;;;;;;;24.17;12.00;;;7.00;1.00;;;;;;4918341;29;20258;-76
2022/11/07 04:04:14;;;;;;;20.60;12.00;;;7.00;99.90;;;;;;4922699;29;20229;-76
2022/11/07 04:06:43;;;;;;;22.87;12.13;;;7.00;99.90;;;;;;4932423;29;20201;-77
2022/11/07 04:09:10;;;;;;;22.17;11.83;;;7.00;99.90;;;;;;4941534;29;20197;-78
2022/11/07 04:17:19;;;;;;;24.60;11.70;;;7.00;1.00;;;;;;4932839;29;20228;-77
2022/11/07 04:19:47;;;;;;;22.43;11.60;;;7.00;1.00;;;;;;4922207;29;20187;-78
2022/11/07 04:22:15;;;;;;;19.20;11.70;;;7.00;1.00;;;;;;4932254;29;20196;-77
2022/11/07 04:24:43;;;;;;;27.17;15.30;;;7.00;1.00;;;;;;4935804;29;20275;-78
2022/11/07 04:29:55;;;;;;;23.40;15.17;;;7.00;1.00;;;;;;4923889;29;20762;-78
2022/11/07 04:32:23;;;;;;;23.80;12.10;;;7.00;1.00;;;;;;4934200;29;20228;-79
2022/11/07 04:34:50;;;;;;;26.03;13.77;;;7.00;1.00;;;;;;4922250;29;20281;-76
2022/11/07 04:37:18;;;;;;;33.83;17.13;;;7.00;1.00;;;;;;4922763;29;20662;-76
2022/11/07 04:39:45;;;;;;;32.60;16.10;;;6.90;1.00;;;;;;4924922;29;20543;-78
2022/11/07 04:42:12;;;;;;;23.93;13.33;;;7.00;1.00;;;;;;4940417;29;20196;-78
2022/11/07 04:44:39;;;;;;;32.33;16.00;;;7.00;1.00;;;;;;4939684;29;20687;-80
2022/11/07 04:47:06;;;;;;;30.63;14.90;;;7.00;1.00;;;;;;4922147;29;20259;-78
2022/11/07 04:49:33;;;;;;;30.53;15.10;;;7.00;1.00;;;;;;4922030;29;20249;-76
2022/11/07 04:52:00;;;;;;;28.40;14.37;;;7.00;1.00;;;;;;4921827;29;20253;-77
2022/11/07 04:54:29;;;;;;;30.47;16.00;;;7.00;1.00;;;;;;4922755;29;20190;-78
2022/11/07 04:56:56;;;;;;;30.70;14.93;;;7.00;1.00;;;;;;4921753;29;20206;-78
2022/11/07 04:59:23;;;;;;;22.63;13.37;;;7.00;1.00;;;;;;4921732;29;20680;-78
2022/11/07 05:01:50;;;;;;;30.53;18.80;;;7.00;1.00;;;;;;4921622;29;20620;-78
2022/11/07 05:04:17;;;;;;;27.00;14.57;;;7.00;1.00;;;;;;4922166;29;20229;-78
2022/11/07 05:06:44;;;;;;;27.80;14.23;;;7.10;99.90;;;;;;4922191;29;20256;-78
2022/11/07 05:09:16;;;;;;;28.33;16.90;;;7.00;99.90;;;;;;4921641;29;20664;-77
2022/11/07 05:11:45;;;;;;;24.27;12.63;;;7.10;99.90;;;;;;4922092;29;20285;-76
2022/11/07 05:14:14;;;;;;;25.20;12.30;;;7.10;99.90;;;;;;4918498;29;20229;-77
2022/11/07 05:16:42;;;;;;;20.47;11.07;;;7.10;1.00;;;;;;4918638;29;20669;-77
2022/11/07 05:19:15;;;;;;;21.50;11.93;;;7.10;1.00;;;;;;4918899;29;20277;-77
2022/11/07 05:21:42;;;;;;;20.53;11.07;;;7.10;1.00;;;;;;4918832;29;20186;-77
2022/11/07 05:24:08;;;;;;;20.57;12.70;;;7.10;1.00;;;;;;4918755;29;20257;-78
2022/11/07 05:26:35;;;;;;;18.80;11.17;;;7.10;1.00;;;;;;4918771;29;20619;-77
2022/11/07 05:29:04;;;;;;;22.73;12.10;;;7.00;1.00;;;;;;4918359;29;20197;-78
2022/11/07 05:31:31;;;;;;;23.20;11.50;;;7.10;1.00;;;;;;4918707;29;20207;-78
2022/11/07 05:33:58;;;;;;;23.10;11.43;;;7.10;1.00;;;;;;4923679;29;20652;-78
2022/11/07 05:36:26;;;;;;;21.40;11.90;;;7.10;1.00;;;;;;4937310;29;20197;-77
2022/11/07 05:38:53;;;;;;;20.07;11.73;;;7.10;1.00;;;;;;4937233;29;20197;-76
2022/11/07 05:41:21;;;;;;;22.53;12.57;;;7.10;1.00;;;;;;4937684;29;20276;-79
2022/11/07 05:43:48;;;;;;;22.97;12.73;;;7.10;1.00;;;;;;4926385;29;20219;-78
2022/11/07 05:46:17;;;;;;;23.53;12.87;;;7.10;1.00;;;;;;4917412;29;20209;-78
2022/11/07 05:48:44;;;;;;;28.23;13.90;;;7.10;1.00;;;;;;4918385;29;20233;-77
2022/11/07 05:51:11;;;;;;;21.70;12.30;;;7.20;1.00;;;;;;4920847;29;20230;-78
2022/11/07 05:53:38;;;;;;;25.53;12.87;;;7.20;1.00;;;;;;4937076;29;20611;-76
2022/11/07 05:56:06;;;;;;;28.40;14.37;;;7.20;99.90;;;;;;4937056;29;20226;-78
2022/11/07 05:58:33;;;;;;;23.13;12.97;;;7.20;99.90;;;;;;4924549;29;20205;-78
2022/11/07 06:01:03;;;;;;;27.10;13.67;;;7.20;99.90;;;;;;4926286;29;20208;-77
2022/11/07 06:03:32;;;;;;;21.67;12.73;;;7.30;99.90;;;;;;4917563;29;20668;-77
2022/11/07 06:05:59;;;;;;;25.50;13.93;;;7.30;91.20;;;;;;4918110;29;20201;-79
2022/11/07 06:08:26;;;;;;;20.93;12.27;;;7.30;31.20;;;;;;4926720;29;20198;-78
2022/11/07 06:10:53;;;;;;;20.43;13.50;;;7.30;1.00;;;;;;4935969;29;20249;-79
2022/11/07 06:13:20;;;;;;;22.90;12.80;;;7.30;1.00;;;;;;4935915;29;20232;-78
2022/11/07 06:15:47;;;;;;;25.57;12.80;;;7.30;1.00;;;;;;4936520;29;20252;-79
2022/11/07 06:18:17;;;;;;;22.13;12.60;;;7.30;1.00;;;;;;4936346;29;20225;-78
2022/11/07 06:20:46;;;;;;;19.20;12.13;;;7.30;1.00;;;;;;4936243;29;20615;-79
2022/11/07 06:23:13;;;;;;;22.13;12.50;;;7.40;1.00;;;;;;4936614;29;20720;-79
2022/11/07 06:25:40;;;;;;;21.33;11.43;;;7.40;1.00;;;;;;4935916;29;20762;-79
2022/11/07 06:28:09;;;;;;;21.30;11.90;;;7.30;1.00;;;;;;4936480;29;20205;-79
2022/11/07 06:30:36;;;;;;;20.03;11.27;;;7.40;71.50;;;;;;4936449;29;20204;-78
2022/11/07 06:33:05;;;;;;;16.13;10.07;;;7.40;91.60;;;;;;4936046;29;20229;-78
2022/11/07 06:35:33;;;;;;;19.00;10.47;;;7.50;1.40;;;;;;4936415;29;20201;-78
2022/11/07 06:38:03;;;;;;;19.70;11.30;;;7.50;29.10;;;;;;4936213;29;20201;-78
2022/11/07 06:40:31;;;;;;;20.53;10.97;;;7.50;90.40;;;;;;4936275;29;20191;-78
2022/11/07 06:43:05;;;;;;;17.43;10.70;;;7.50;99.90;;;;;;4930237;29;20190;-79
2022/11/07 06:45:32;;;;;;;19.40;11.67;;;7.50;99.90;;;;;;4917123;29;20205;-78
2022/11/07 06:47:59;;;;;;;21.17;11.60;;;7.60;99.90;;;;;;4917162;29;20257;-79
2022/11/07 06:50:26;;;;;;;17.23;11.77;;;7.60;1.00;;;;;;4916776;29;20257;-78
2022/11/07 06:52:53;;;;;;;18.53;11.50;;;7.70;1.00;;;;;;4917013;29;20617;-78
2022/11/07 06:55:22;;;;;;;20.23;12.17;;;7.70;1.00;;;;;;4917134;29;20206;-77
2022/11/07 06:57:49;;;;;;;22.00;13.40;;;7.80;1.00;;;;;;4916935;29;20544;-78
2022/11/07 07:00:17;;;;;;;19.67;12.00;;;7.90;1.00;;;;;;4916990;29;20201;-78
2022/11/07 07:02:44;;;;;;;21.33;11.77;;;7.90;1.00;;;;;;4916865;29;20198;-80
2022/11/07 07:05:11;;;;;;;21.00;12.33;;;8.00;1.00;;;;;;4916510;29;20222;-79
2022/11/07 07:07:38;;;;;;;20.10;12.20;;;8.00;1.00;;;;;;4916530;29;20202;-79
2022/11/07 07:10:06;;;;;;;20.77;11.73;;;8.10;1.00;;;;;;4916421;29;20620;-77
2022/11/07 07:12:34;;;;;;;18.33;10.90;;;8.20;1.00;;;;;;4916799;29;20202;-79
2022/11/07 07:15:01;;;;;;;21.10;11.40;;;8.30;1.00;;;;;;4916413;29;20604;-80
2022/11/07 07:17:28;;;;;;;18.90;11.87;;;8.30;99.90;;;;;;4916583;29;20260;-79
2022/11/07 07:19:55;;;;;;;20.20;11.00;;;8.40;99.90;;;;;;4916815;29;20262;-79
2022/11/07 07:22:22;;;;;;;20.73;12.30;;;8.50;99.90;;;;;;4916740;29;20202;-78
2022/11/07 07:24:50;;;;;;;20.53;12.10;;;8.50;99.90;;;;;;4916182;29;20215;-78
2022/11/07 07:27:19;;;;;;;22.67;12.57;;;8.60;51.00;;;;;;4916434;29;20280;-79
2022/11/07 07:29:47;;;;;;;20.20;12.63;;;8.60;1.00;;;;;;4916220;29;20667;-78
2022/11/07 07:32:14;;;;;;;29.07;13.50;;;8.60;1.00;;;;;;4916371;29;20204;-78
2022/11/07 07:34:41;;;;;;;25.00;14.23;;;8.60;1.00;;;;;;4916057;29;20598;-78
2022/11/07 07:37:09;;;;;;;20.80;13.13;;;8.70;14.60;;;;;;4915856;29;20203;-78
2022/11/07 07:39:36;;;;;;;34.20;19.40;;;8.80;47.30;;;;;;4916339;29;20202;-79
2022/11/07 07:42:03;;;;;;;24.10;14.70;;;8.90;21.70;;;;;;4916564;29;20242;-78
2022/11/07 07:44:30;;;;;;;20.30;12.63;;;9.10;13.80;;;;;;4915848;29;20223;-78
2022/11/07 07:46:59;;;;;;;16.40;10.93;;;9.20;1.00;;;;;;4916432;29;20666;-78
2022/11/07 07:49:26;;;;;;;16.37;10.13;;;9.40;1.00;;;;;;4916469;29;20247;-78
2022/11/07 07:51:53;;;;;;;16.07;10.30;;;9.50;1.00;;;;;;4916117;29;20563;-80
2022/11/07 07:54:20;;;;;;;18.27;10.57;;;9.50;1.00;;;;;;4915746;29;20326;-80
2022/11/07 07:56:47;;;;;;;14.77;10.13;;;9.60;1.00;;;;;;4916050;29;20233;-80
2022/11/07 07:59:14;;;;;;;15.13;10.60;;;9.60;1.00;;;;;;4915786;29;20209;-78
2022/11/07 08:01:41;;;;;;;13.13;9.87;;;9.70;1.00;;;;;;4915754;29;20625;-79
2022/11/07 08:04:09;;;;;;;14.23;10.10;;;9.80;99.90;;;;;;4915946;29;20258;-78
2022/11/07 08:06:36;;;;;;;16.33;9.57;;;9.80;99.90;;;;;;4916047;29;20208;-79
2022/11/07 08:09:04;;;;;;;12.17;8.70;;;9.90;99.90;;;;;;4915968;29;20205;-78
2022/11/07 08:11:31;;;;;;;14.00;9.90;;;9.90;99.90;;;;;;4916007;29;20201;-79
2022/11/07 08:13:58;;;;;;;14.10;9.90;;;10.00;86.10;;;;;;4916202;29;20226;-79
2022/11/07 08:16:25;;;;;;;12.53;9.50;;;10.00;1.00;;;;;;4916211;29;20568;-79
2022/11/07 08:18:52;;;;;;;12.60;8.80;;;10.00;1.00;;;;;;4915883;29;20209;-79
2022/11/07 08:21:22;;;;;;;13.93;8.83;;;10.00;1.00;;;;;;4915929;29;20568;-79
2022/11/07 08:23:52;;;;;;;11.93;8.53;;;10.10;1.00;;;;;;4916170;29;20251;-78
2022/11/07 08:26:19;;;;;;;11.63;8.07;;;10.10;1.00;;;;;;4915521;29;20256;-79
2022/11/07 08:28:46;;;;;;;19.93;9.70;;;10.10;1.00;;;;;;4915848;29;20672;-80
2022/11/07 08:31:14;;;;;;;12.60;8.77;;;10.20;1.00;;;;;;4915782;29;20305;-79
2022/11/07 08:33:41;;;;;;;12.60;8.63;;;10.20;1.00;;;;;;4915451;29;20855;-78
2022/11/07 08:36:08;;;;;;;13.07;9.10;;;10.30;1.00;;;;;;4915805;29;20202;-79
2022/11/07 08:38:37;;;;;;;13.87;8.60;;;10.40;1.00;;;;;;4915472;29;20264;-78
2022/11/07 08:41:04;;;;;;;10.70;7.67;;;10.40;1.00;;;;;;4915427;29;20227;-78
2022/11/07 08:43:31;;;;;;;12.13;7.87;;;10.40;1.00;;;;;;4930014;29;20675;-79
2022/11/07 08:45:58;;;;;;;13.40;8.60;;;10.40;99.90;;;;;;4934825;29;20217;-79
2022/11/07 08:48:25;;;;;;;19.63;8.80;;;10.50;99.90;;;;;;4934991;29;20263;-80
2022/11/07 08:50:53;;;;;;;14.53;8.17;;;10.50;99.90;;;;;;4937666;29;20227;-80
2022/11/07 08:53:20;;;;;;;12.50;8.07;;;10.60;99.90;;;;;;4938183;29;20254;-79
2022/11/07 08:55:49;;;;;;;15.70;8.37;;;10.60;99.90;;;;;;4938042;29;20287;-79
2022/11/07 08:58:16;;;;;;;12.17;8.30;;;10.70;99.90;;;;;;4938063;29;20203;-78
2022/11/07 09:00:43;;;;;;;24.17;9.70;;;10.80;99.90;;;;;;4938055;29;20598;-79
2022/11/07 09:03:12;;;;;;;16.60;8.70;;;10.90;72.50;;;;;;4938048;29;20202;-78
2022/11/07 09:05:39;;;;;;;13.73;8.13;;;10.90;1.00;;;;;;4937658;29;20699;-79
2022/11/07 09:08:06;;;;;;;13.40;8.80;;;10.90;1.00;;;;;;4937653;29;20198;-80
2022/11/07 09:10:33;;;;;;;12.50;9.37;;;11.00;1.00;;;;;;4937919;29;20203;-78
2022/11/07 09:13:02;;;;;;;13.87;9.60;;;11.00;1.00;;;;;;4937214;29;20232;-79
2022/11/07 09:15:29;;;;;;;12.43;9.47;;;11.10;1.00;;;;;;4937773;29;20200;-78
2022/11/07 09:17:56;;;;;;;13.33;10.37;;;11.10;1.00;;;;;;4937779;29;20202;-79
2022/11/07 09:20:23;;;;;;;13.63;10.20;;;11.10;1.00;;;;;;4937705;29;20258;-80
2022/11/07 09:22:55;;;;;;;13.57;9.70;;;11.10;1.00;;;;;;4937631;29;20254;-80
2022/11/07 09:25:22;;;;;;;22.40;14.60;;;11.10;1.00;;;;;;4937332;29;20209;-79
2022/11/07 09:27:50;;;;;;;30.63;18.00;;;11.20;1.00;;;;;;4937267;29;20669;-79
2022/11/07 09:30:19;;;;;;;52.03;18.87;;;11.20;1.00;;;;;;4937513;29;20261;-79
2022/11/07 09:32:46;;;;;;;37.67;18.83;;;11.30;1.00;;;;;;4937603;29;20261;-79
2022/11/07 09:35:13;;;;;;;36.20;19.73;;;11.30;1.00;;;;;;4937426;29;20211;-79
2022/11/07 09:37:41;;;;;;;23.47;13.57;;;11.30;1.00;;;;;;4937421;29;20569;-78
2022/11/07 09:40:22;;;;;;;21.50;12.53;;;11.30;1.00;;;;;;4937133;29;20695;-78
2022/11/07 09:43:08;;;;;;;20.47;13.77;;;11.30;1.00;;;;;;4936286;29;20648;-79
2022/11/07 09:45:49;;;;;;;24.90;12.07;;;11.40;1.00;;;;;;4937487;29;20266;-79
2022/11/07 09:48:22;;;;;;;30.70;19.33;;;11.40;1.00;;;;;;4937324;29;20191;-79
2022/11/07 09:50:51;;;;;;;13.03;8.03;;;11.50;1.00;;;;;;4936899;29;20189;-80
2022/11/07 09:53:26;;;;;;;9.47;7.50;;;11.50;1.00;;;;;;4936826;29;20664;-79
2022/11/07 09:55:56;;;;;;;12.93;8.27;;;11.60;1.00;;;;;;4937159;29;20187;-81
2022/11/07 09:58:28;;;;;;;13.27;8.17;;;11.70;1.00;;;;;;4936997;29;20208;-78
2022/11/07 10:01:01;;;;;;;12.60;8.17;;;11.80;99.90;;;;;;4936268;29;20638;-79
2022/11/07 10:03:28;;;;;;;10.40;7.20;;;11.80;99.90;;;;;;4936732;29;20655;-79
2022/11/07 10:06:05;;;;;;;17.10;11.03;;;11.90;99.90;;;;;;4936535;29;20691;-78
2022/11/07 10:08:39;;;;;;;16.30;8.83;;;11.90;99.90;;;;;;4936984;29;20196;-79
2022/11/07 10:11:12;;;;;;;13.87;7.67;;;11.90;99.90;;;;;;4936895;29;20185;-79
2022/11/07 10:13:54;;;;;;;18.97;11.77;;;11.90;99.90;;;;;;4917274;29;20585;-80
2022/11/07 10:16:36;;;;;;;8.17;6.43;;;12.00;99.90;;;;;;4917502;29;20194;-79
2022/11/07 10:19:16;;;;;;;9.60;6.00;;;11.90;99.90;;;;;;4917860;29;20189;-79
2022/11/07 10:21:50;;;;;;;10.27;6.67;;;11.90;99.90;;;;;;4917488;29;20197;-80
2022/11/07 10:24:37;;;;;;;8.27;6.63;;;11.90;99.90;;;;;;4917669;29;20264;-80
2022/11/07 10:27:08;;;;;;;8.10;5.90;;;11.90;99.90;;;;;;4917411;29;20268;-80
2022/11/07 10:29:44;;;;;;;9.57;6.93;;;11.90;99.90;;;;;;4917509;29;20638;-79
2022/11/07 10:32:21;;;;;;;15.90;11.20;;;11.90;99.90;;;;;;4917492;29;20177;-79
2022/11/07 10:34:51;;;;;;;8.93;7.60;;;12.00;99.90;;;;;;4917417;29;20182;-79
2022/11/07 10:37:18;;;;;;;8.50;7.13;;;12.10;99.90;;;;;;4917049;29;20732;-79
2022/11/07 10:39:45;;;;;;;8.23;6.27;;;12.10;99.90;;;;;;4917025;29;20673;-79
2022/11/07 10:42:16;;;;;;;17.37;6.40;;;12.20;92.80;;;;;;4916661;29;20254;-79
2022/11/07 10:44:43;;;;;;;8.53;5.50;;;12.30;76.80;;;;;;4929207;29;20240;-78
2022/11/07 10:47:20;;;;;;;7.87;5.00;;;12.40;1.00;;;;;;4936021;29;20254;-78
2022/11/07 10:49:55;;;;;;;21.03;6.53;;;12.40;6.60;;;;;;4935816;29;20197;-79
2022/11/07 10:52:23;;;;;;;8.07;6.00;;;12.40;1.00;;;;;;4936059;29;20321;-80
2022/11/07 10:54:50;;;;;;;8.33;5.77;;;12.40;1.00;;;;;;4935693;29;20208;-79
2022/11/07 10:57:18;;;;;;;7.10;4.90;;;12.50;1.00;;;;;;4935609;29;20252;-78
2022/11/07 10:59:55;;;;;;;9.77;5.50;;;12.60;1.00;;;;;;4935875;29;20203;-77
2022/11/07 11:02:24;;;;;;;7.23;5.00;;;12.60;1.00;;;;;;4935919;29;20218;-79
2022/11/07 11:04:54;;;;;;;7.40;5.50;;;12.60;1.00;;;;;;4935782;29;20266;-79
2022/11/07 11:07:24;;;;;;;8.23;4.90;;;12.50;1.00;;;;;;4935360;29;20310;-78
2022/11/07 11:09:54;;;;;;;8.17;4.73;;;12.50;1.00;;;;;;4935767;29;20709;-80
2022/11/07 11:12:24;;;;;;;8.20;5.10;;;12.50;1.00;;;;;;4923277;29;20190;-79
2022/11/07 11:15:05;;;;;;;12.63;5.07;;;12.40;1.00;;;;;;4916292;29;20701;-79
2022/11/07 11:17:33;;;;;;;7.90;4.40;;;12.40;1.00;;;;;;4916683;29;20943;-79
2022/11/07 11:20:00;;;;;;;6.03;4.63;;;12.30;1.00;;;;;;4916310;29;20266;-80
2022/11/07 11:22:28;;;;;;;20.80;5.93;;;12.40;1.00;;;;;;4916543;29;20260;-79
2022/11/07 11:25:02;;;;;;;6.03;4.30;;;12.40;1.00;;;;;;4916251;29;20289;-79
2022/11/07 11:27:33;;;;;;;6.07;4.33;;;12.40;1.00;;;;;;4916501;29;20213;-81
2022/11/07 11:30:05;;;;;;;7.40;4.20;;;12.50;1.00;;;;;;4916489;29;20255;-80
2022/11/07 11:32:39;;;;;;;7.30;4.83;;;12.50;1.00;;;;;;4916736;29;20190;-79
2022/11/07 11:35:17;;;;;;;12.20;5.60;;;12.60;1.00;;;;;;4916139;29;20634;-79
2022/11/07 11:37:49;;;;;;;5.50;4.50;;;12.70;1.00;;;;;;4916127;29;20199;-79
2022/11/07 11:40:21;;;;;;;6.00;4.20;;;12.80;1.00;;;;;;4916045;29;20633;-80
2022/11/07 11:42:54;;;;;;;7.63;4.33;;;12.90;1.00;;;;;;4930026;29;20191;-78
2022/11/07 11:45:33;;;;;;;5.00;3.93;;;13.00;1.00;;;;;;4935188;29;20187;-80
2022/11/07 11:48:10;;;;;;;10.07;5.23;;;13.00;1.00;;;;;;4934893;29;20689;-80
2022/11/07 11:50:43;;;;;;;13.27;6.93;;;13.00;1.00;;;;;;4934637;29;20646;-79
2022/11/07 11:53:15;;;;;;;15.20;6.97;;;13.00;1.00;;;;;;4935434;29;20258;-80
2022/11/07 11:55:48;;;;;;;7.30;4.97;;;12.90;1.00;;;;;;4935398;29;20230;-80
2022/11/07 11:58:26;;;;;;;8.23;4.80;;;13.00;1.00;;;;;;4935139;29;20184;-79
2022/11/07 12:01:03;;;;;;;9.27;4.90;;;12.90;1.00;;;;;;4934808;29;20237;-79
2022/11/07 12:03:55;;;;;;;8.90;4.60;;;13.00;1.00;;;;;;4935071;29;20238;-78
2022/11/07 12:06:30;;;;;;;12.80;5.07;;;13.00;1.00;;;;;;4935003;29;20213;-79
2022/11/07 12:09:31;;;;;;;8.63;4.70;;;13.00;1.00;;;;;;4934712;29;20188;-79
2022/11/07 12:12:15;;;;;;;18.20;5.20;;;13.00;1.00;;;;;;4923983;29;20716;-78
2022/11/07 12:14:56;;;;;;;13.10;5.53;;;13.10;1.00;;;;;;4915753;29;20575;-78
2022/11/07 12:17:30;;;;;;;7.87;4.20;;;13.10;1.00;;;;;;4915947;29;20184;-80
2022/11/07 12:20:06;;;;;;;9.17;4.57;;;13.10;1.00;;;;;;4916058;29;20251;-78
2022/11/07 12:22:44;;;;;;;11.03;4.73;;;13.10;1.00;;;;;;4916070;29;20648;-79
2022/11/07 12:25:18;;;;;;;6.53;4.03;;;13.10;1.00;;;;;;4919720;29;20218;-79
2022/11/07 12:27:51;;;;;;;18.43;5.70;;;13.10;1.00;;;;;;4919639;29;20184;-80
2022/11/07 12:30:23;;;;;;;12.10;5.10;;;13.20;1.00;;;;;;4919673;29;20259;-80
2022/11/07 12:33:03;;;;;;;7.97;4.00;;;13.30;1.00;;;;;;4919615;29;20184;-79
2022/11/07 12:35:42;;;;;;;11.40;5.37;;;13.20;1.00;;;;;;4919529;29;20191;-79
2022/11/07 12:39:00;;;;;;;7.50;4.90;;;13.00;99.90;;;;;;4919543;29;20184;-79
2022/11/07 12:41:35;;;;;;;11.73;5.67;;;12.80;1.00;;;;;;4922793;29;20190;-80
2022/11/07 12:44:18;;;;;;;6.73;3.97;;;12.70;1.00;;;;;;4938115;29;20189;-80
2022/11/07 12:46:51;;;;;;;8.87;3.90;;;12.60;1.00;;;;;;4938546;29;20257;-79
2022/11/07 12:49:40;;;;;;;12.83;5.73;;;12.60;1.00;;;;;;4938596;29;20182;-78
2022/11/07 12:52:22;;;;;;;11.50;5.07;;;12.50;1.00;;;;;;4938299;29;20187;-79
2022/11/07 12:54:56;;;;;;;15.50;5.30;;;12.50;1.00;;;;;;4938367;29;20269;-79
2022/11/07 12:57:27;;;;;;;6.07;4.63;;;12.50;1.00;;;;;;4938071;29;20182;-78
2022/11/07 12:59:59;;;;;;;10.23;5.10;;;12.60;1.00;;;;;;4937833;29;20191;-79
2022/11/07 13:02:40;;;;;;;8.57;4.50;;;12.60;1.00;;;;;;4938101;29;20181;-79
2022/11/07 13:05:18;;;;;;;9.93;4.13;;;12.60;1.00;;;;;;4938018;29;20245;-80
2022/11/07 13:07:57;;;;;;;7.53;4.87;;;12.60;1.00;;;;;;4938195;29;20207;-79
2022/11/07 13:10:30;;;;;;;6.93;4.87;;;12.60;1.00;;;;;;4937241;29;20592;-80